createdAt,value
2019-05-09T00:02:24.955Z,95731.00
2019-05-09T00:04:56.809Z,95739.00
2019-05-09T00:07:28.062Z,95749.00
2019-05-09T00:09:59.678Z,95747.00
2019-05-09T00:12:30.895Z,95749.00
2019-05-09T00:15:04.406Z,95746.00
2019-05-09T00:17:36.398Z,95740.00
2019-05-09T00:20:17.211Z,95741.00
2019-05-09T00:22:48.359Z,95754.00
2019-05-09T00:25:19.551Z,95758.00
2019-05-09T00:27:50.775Z,95766.00
2019-05-09T00:30:43.530Z,95758.00
2019-05-09T00:33:16.168Z,95759.00
2019-05-09T00:35:47.231Z,95759.00
2019-05-09T00:38:20.856Z,95769.00
2019-05-09T00:40:58.451Z,95768.00
2019-05-09T00:43:25.364Z,95774.00
2019-05-09T00:46:15.581Z,95764.00
2019-05-09T00:48:58.278Z,95775.00
2019-05-09T00:51:29.526Z,95777.00
2019-05-09T00:54:00.698Z,95788.00
2019-05-09T00:56:33.150Z,95778.00
2019-05-09T00:59:04.895Z,95781.00
2019-05-09T01:01:36.019Z,95776.00
2019-05-09T01:04:07.348Z,95785.00
2019-05-09T01:06:38.868Z,95794.00
2019-05-09T01:09:13.506Z,95768.00
2019-05-09T01:11:44.912Z,95773.00
2019-05-09T01:14:16.560Z,95766.00
2019-05-09T01:16:47.740Z,95764.00
2019-05-09T01:19:19.262Z,95792.00
2019-05-09T01:21:50.479Z,95790.00
2019-05-09T01:24:23.260Z,95784.00
2019-05-09T01:26:54.595Z,95776.00
2019-05-09T01:29:26.189Z,95777.00
2019-05-09T01:31:58.940Z,95777.00
2019-05-09T01:34:33.086Z,95780.00
2019-05-09T01:37:05.103Z,95763.00
2019-05-09T01:39:37.990Z,95782.00
2019-05-09T01:42:09.249Z,95774.00
2019-05-09T01:44:40.525Z,95777.00
2019-05-09T01:47:13.712Z,95785.00
2019-05-09T01:49:45.366Z,95782.00
2019-05-09T01:52:16.625Z,95774.00
2019-05-09T01:54:49.801Z,95782.00
2019-05-09T01:57:23.110Z,95784.00
2019-05-09T01:59:53.876Z,95784.00
2019-05-09T02:02:25.129Z,95769.00
2019-05-09T02:04:56.773Z,95783.00
2019-05-09T02:07:28.036Z,95785.00
2019-05-09T02:09:59.242Z,95791.00
2019-05-09T02:12:30.675Z,95796.00
2019-05-09T02:15:13.120Z,95792.00
2019-05-09T02:18:05.346Z,95790.00
2019-05-09T02:20:37.063Z,95776.00
2019-05-09T02:23:08.935Z,95786.00
2019-05-09T02:25:41.060Z,95806.00
2019-05-09T02:28:14.161Z,95787.00
2019-05-09T02:30:46.124Z,95780.00
2019-05-09T02:33:17.399Z,95780.00
2019-05-09T02:35:56.563Z,95793.00
2019-05-09T02:38:21.952Z,95778.00
2019-05-09T02:40:54.692Z,95776.00
2019-05-09T02:43:28.822Z,95764.00
2019-05-09T02:46:09.773Z,95796.00
2019-05-09T02:48:40.799Z,95792.00
2019-05-09T02:51:12.065Z,95798.00
2019-05-09T02:53:43.310Z,95776.00
2019-05-09T02:56:14.586Z,95786.00
2019-05-09T02:59:05.082Z,95799.00
2019-05-09T03:02:04.670Z,95786.00
2019-05-09T03:04:39.090Z,95791.00
2019-05-09T03:07:10.001Z,95779.00
2019-05-09T03:09:41.897Z,95780.00
2019-05-09T03:12:26.674Z,95785.00
2019-05-09T03:14:48.688Z,95797.00
2019-05-09T03:17:19.513Z,95809.00
2019-05-09T03:19:50.695Z,95805.00
2019-05-09T03:22:23.273Z,95793.00
2019-05-09T03:24:54.375Z,95789.00
2019-05-09T03:27:29.281Z,95780.00
2019-05-09T03:30:01.951Z,95790.00
2019-05-09T03:32:33.352Z,95800.00
2019-05-09T03:35:05.150Z,95810.00
2019-05-09T03:37:37.916Z,95805.00
2019-05-09T03:40:09.282Z,95800.00
2019-05-09T03:42:43.815Z,95786.00
2019-05-09T03:45:18.197Z,95776.00
2019-05-09T03:47:53.975Z,95771.00
2019-05-09T03:50:25.233Z,95785.00
2019-05-09T03:52:58.001Z,95793.00
2019-05-09T03:55:33.938Z,95800.00
2019-05-09T03:58:10.081Z,95809.00
2019-05-09T04:00:41.327Z,95796.00
2019-05-09T04:03:12.605Z,95801.00
2019-05-09T04:05:55.535Z,95795.00
2019-05-09T04:08:18.261Z,95798.00
2019-05-09T04:10:51.878Z,95795.00
2019-05-09T04:13:38.515Z,95813.00
2019-05-09T04:16:10.165Z,95807.00
2019-05-09T04:18:43.494Z,95803.00
2019-05-09T04:21:14.598Z,95803.00
2019-05-09T04:23:47.935Z,95805.00
2019-05-09T04:26:29.560Z,95818.00
2019-05-09T04:29:01.566Z,95812.00
2019-05-09T04:31:32.757Z,95818.00
2019-05-09T04:34:04.265Z,95802.00
2019-05-09T04:36:44.548Z,95805.00
2019-05-09T04:39:23.618Z,95818.00
2019-05-09T04:41:49.204Z,95813.00
2019-05-09T04:44:28.370Z,95822.00
2019-05-09T04:47:03.406Z,95818.00
2019-05-09T04:49:39.668Z,95823.00
2019-05-09T04:52:07.516Z,95829.00
2019-05-09T04:54:38.553Z,95834.00
2019-05-09T04:57:09.883Z,95826.00
2019-05-09T04:59:41.162Z,95831.00
2019-05-09T05:02:49.806Z,95830.00
2019-05-09T05:05:20.997Z,95847.00
2019-05-09T05:07:52.553Z,95835.00
2019-05-09T05:10:23.848Z,95847.00
2019-05-09T05:12:57.328Z,95845.00
2019-05-09T05:15:28.642Z,95849.00
2019-05-09T05:17:59.708Z,95849.00
2019-05-09T05:20:31.466Z,95859.00
2019-05-09T05:23:21.546Z,95850.00
2019-05-09T05:25:52.801Z,95844.00
2019-05-09T05:28:24.054Z,95843.00
2019-05-09T05:30:55.580Z,95844.00
2019-05-09T05:33:32.495Z,95849.00
2019-05-09T05:36:07.860Z,95851.00
2019-05-09T05:38:39.220Z,95852.00
2019-05-09T05:41:10.470Z,95863.00
2019-05-09T05:43:44.657Z,95844.00
2019-05-09T05:46:37.922Z,95859.00
2019-05-09T05:49:09.289Z,95851.00
2019-05-09T05:51:50.078Z,95851.00
2019-05-09T05:54:22.427Z,95856.00
2019-05-09T05:56:53.694Z,95854.00
2019-05-09T05:59:24.753Z,95851.00
2019-05-09T06:01:58.368Z,95853.00
2019-05-09T06:04:29.310Z,95838.00
2019-05-09T06:07:00.574Z,95842.00
2019-05-09T06:09:31.972Z,95846.00
2019-05-09T06:12:03.090Z,95841.00
2019-05-09T06:14:34.679Z,95835.00
2019-05-09T06:17:07.858Z,95841.00
2019-05-09T06:19:39.029Z,95842.00
2019-05-09T06:22:10.124Z,95836.00
2019-05-09T06:24:42.676Z,95841.00
2019-05-09T06:27:13.950Z,95855.00
2019-05-09T06:29:47.675Z,95851.00
2019-05-09T06:32:19.036Z,95846.00
2019-05-09T06:34:50.308Z,95847.00
2019-05-09T06:37:21.474Z,95849.00
2019-05-09T06:39:53.003Z,95850.00
2019-05-09T06:42:25.461Z,95849.00
2019-05-09T06:45:22.514Z,95847.00
2019-05-09T06:47:55.185Z,95854.00
2019-05-09T06:50:27.362Z,95856.00
2019-05-09T06:52:59.002Z,95847.00
2019-05-09T06:55:30.533Z,95843.00
2019-05-09T06:58:20.873Z,95851.00
2019-05-09T07:00:58.439Z,95834.00
2019-05-09T07:03:30.414Z,95847.00
2019-05-09T07:06:08.437Z,95853.00
2019-05-09T07:08:52.868Z,95848.00
2019-05-09T07:11:27.478Z,95841.00
2019-05-09T07:13:58.751Z,95844.00
2019-05-09T07:16:29.975Z,95835.00
2019-05-09T07:19:01.366Z,95837.00
2019-05-09T07:21:50.763Z,95835.00
2019-05-09T07:24:22.667Z,95829.00
2019-05-09T07:26:54.956Z,95836.00
2019-05-09T07:29:28.466Z,95824.00
2019-05-09T07:32:07.526Z,95829.00
2019-05-09T07:34:43.046Z,95834.00
2019-05-09T07:37:14.346Z,95823.00
2019-05-09T07:39:45.621Z,95836.00
2019-05-09T07:42:18.048Z,95834.00
2019-05-09T07:44:52.318Z,95842.00
2019-05-09T07:47:22.615Z,95839.00
2019-05-09T07:49:54.070Z,95824.00
2019-05-09T07:52:28.251Z,95833.00
2019-05-09T07:54:58.472Z,95824.00
2019-05-09T07:57:29.671Z,95822.00
2019-05-09T08:00:00.884Z,95822.00
2019-05-09T08:02:32.143Z,95826.00
2019-05-09T08:05:03.490Z,95827.00
2019-05-09T08:07:37.879Z,95828.00
2019-05-09T08:10:11.100Z,95824.00
2019-05-09T08:12:41.255Z,95822.00
2019-05-09T08:15:16.435Z,95836.00
2019-05-09T08:17:45.830Z,95836.00
2019-05-09T08:20:17.606Z,95824.00
2019-05-09T08:22:57.416Z,95841.00
2019-05-09T08:25:21.975Z,95839.00
2019-05-09T08:27:53.698Z,95848.00
2019-05-09T08:30:24.995Z,95847.00
2019-05-09T08:32:56.307Z,95847.00
2019-05-09T08:35:28.167Z,95848.00
2019-05-09T08:37:59.963Z,95831.00
2019-05-09T08:40:32.169Z,95830.00
2019-05-09T08:43:03.326Z,95857.00
2019-05-09T08:45:34.586Z,95842.00
2019-05-09T08:48:05.921Z,95846.00
2019-05-09T08:50:48.345Z,95850.00
2019-05-09T08:53:20.767Z,95849.00
2019-05-09T08:55:52.257Z,95850.00
2019-05-09T08:58:23.605Z,95847.00
2019-05-09T09:00:54.899Z,95854.00
2019-05-09T09:03:28.263Z,95865.00
2019-05-09T09:05:59.379Z,95854.00
2019-05-09T09:08:30.915Z,95868.00
2019-05-09T09:11:02.748Z,95851.00
2019-05-09T09:13:34.444Z,95845.00
2019-05-09T09:16:15.845Z,95848.00
2019-05-09T09:18:38.925Z,95851.00
2019-05-09T09:21:10.162Z,95850.00
2019-05-09T09:23:46.805Z,95853.00
2019-05-09T09:26:14.764Z,95852.00
2019-05-09T09:28:48.279Z,95862.00
2019-05-09T09:31:20.172Z,95858.00
2019-05-09T09:33:51.489Z,95853.00
2019-05-09T09:36:22.768Z,95850.00
2019-05-09T09:38:54.104Z,95853.00
2019-05-09T09:41:25.828Z,95844.00
2019-05-09T09:43:58.297Z,95859.00
2019-05-09T09:46:29.874Z,95849.00
2019-05-09T09:49:01.123Z,95862.00
2019-05-09T09:51:32.448Z,95843.00
2019-05-09T09:54:03.820Z,95869.00
2019-05-09T09:56:35.139Z,95866.00
2019-05-09T09:59:31.656Z,95856.00
2019-05-09T10:02:03.828Z,95867.00
2019-05-09T10:04:37.383Z,95866.00
2019-05-09T10:07:08.844Z,95860.00
2019-05-09T10:09:41.506Z,95852.00
2019-05-09T10:12:13.121Z,95852.00
2019-05-09T10:14:49.084Z,95852.00
2019-05-09T10:17:47.682Z,95851.00
2019-05-09T10:20:29.226Z,95857.00
2019-05-09T10:23:10.999Z,95860.00
2019-05-09T10:25:33.179Z,95853.00
2019-05-09T10:28:04.660Z,95862.00
2019-05-09T10:30:38.247Z,95855.00
2019-05-09T10:33:09.453Z,95842.00
2019-05-09T10:35:41.676Z,95851.00
2019-05-09T10:38:13.289Z,95852.00
2019-05-09T10:40:44.631Z,95846.00
2019-05-09T10:43:37.903Z,95830.00
2019-05-09T10:46:24.248Z,95842.00
2019-05-09T10:49:00.361Z,95851.00
2019-05-09T10:51:31.545Z,95829.00
2019-05-09T10:54:02.872Z,95842.00
2019-05-09T10:56:35.012Z,95830.00
2019-05-09T10:59:07.768Z,95840.00
2019-05-09T11:01:39.401Z,95831.00
2019-05-09T11:04:10.664Z,95835.00
2019-05-09T11:06:41.885Z,95833.00
2019-05-09T11:09:13.231Z,95828.00
2019-05-09T11:11:44.872Z,95833.00
2019-05-09T11:14:29.622Z,95836.00
2019-05-09T11:16:54.291Z,95824.00
2019-05-09T11:19:23.133Z,95831.00
2019-05-09T11:21:54.474Z,95823.00
2019-05-09T11:24:41.787Z,95817.00
2019-05-09T11:26:59.111Z,95809.00
2019-05-09T11:29:30.757Z,95811.00
2019-05-09T11:32:02.052Z,95809.00
2019-05-09T11:34:33.329Z,95806.00
2019-05-09T11:37:05.081Z,95817.00
2019-05-09T11:39:41.971Z,95798.00
2019-05-09T11:42:10.851Z,95815.00
2019-05-09T11:44:42.181Z,95812.00
2019-05-09T11:47:31.382Z,95814.00
2019-05-09T11:49:48.068Z,95801.00
2019-05-09T11:52:19.693Z,95812.00
2019-05-09T11:54:51.170Z,95830.00
2019-05-09T11:57:22.456Z,95809.00
2019-05-09T11:59:53.742Z,95806.00
2019-05-09T12:02:24.942Z,95805.00
2019-05-09T12:04:56.517Z,95807.00
2019-05-09T12:07:28.796Z,95805.00
2019-05-09T12:10:00.238Z,95805.00
2019-05-09T12:12:31.441Z,95808.00
2019-05-09T12:15:02.676Z,95811.00
2019-05-09T12:17:49.893Z,95812.00
2019-05-09T12:20:13.077Z,95797.00
2019-05-09T12:22:41.479Z,95801.00
2019-05-09T12:25:13.185Z,95823.00
2019-05-09T12:27:44.410Z,95810.00
2019-05-09T12:30:18.692Z,95814.00
2019-05-09T12:32:49.119Z,95805.00
2019-05-09T12:35:20.362Z,95824.00
2019-05-09T12:37:51.870Z,95809.00
2019-05-09T12:40:23.575Z,95827.00
2019-05-09T12:42:55.245Z,95814.00
2019-05-09T12:45:27.554Z,95815.00
2019-05-09T12:48:10.249Z,95822.00
2019-05-09T12:50:32.574Z,95814.00
2019-05-09T12:53:05.229Z,95815.00
2019-05-09T12:55:38.464Z,95807.00
2019-05-09T12:58:27.810Z,95804.00
2019-05-09T13:00:59.995Z,95806.00
2019-05-09T13:03:31.281Z,95809.00
2019-05-09T13:06:03.587Z,95810.00
2019-05-09T13:08:34.747Z,95797.00
2019-05-09T13:11:08.132Z,95791.00
2019-05-09T13:13:40.800Z,95794.00
2019-05-09T13:16:22.904Z,95807.00
2019-05-09T13:19:13.124Z,95789.00
2019-05-09T13:21:44.540Z,95808.00
2019-05-09T13:24:19.523Z,95806.00
2019-05-09T13:26:51.279Z,95797.00
2019-05-09T13:29:22.750Z,95797.00
2019-05-09T13:31:54.035Z,95790.00
2019-05-09T13:34:28.215Z,95804.00
2019-05-09T13:36:59.206Z,95796.00
2019-05-09T13:39:30.362Z,95793.00
2019-05-09T13:42:01.569Z,95788.00
2019-05-09T13:44:33.133Z,95797.00
2019-05-09T13:47:04.449Z,95788.00
2019-05-09T13:49:35.638Z,95780.00
2019-05-09T13:52:09.881Z,95779.00
2019-05-09T13:54:40.087Z,95779.00
2019-05-09T13:57:11.709Z,95777.00
2019-05-09T13:59:43.424Z,95789.00
2019-05-09T14:02:14.745Z,95783.00
2019-05-09T14:04:48.677Z,95778.00
2019-05-09T14:07:19.620Z,95779.00
2019-05-09T14:09:51.507Z,95793.00
2019-05-09T14:12:22.668Z,95791.00
2019-05-09T14:14:53.965Z,95798.00
2019-05-09T14:17:44.747Z,95791.00
2019-05-09T14:19:58.623Z,95797.00
2019-05-09T14:22:30.285Z,95800.00
2019-05-09T14:25:01.403Z,95808.00
2019-05-09T14:27:33.145Z,95803.00
2019-05-09T14:30:07.840Z,95811.00
2019-05-09T14:32:40.156Z,95810.00
2019-05-09T14:35:11.440Z,95812.00
2019-05-09T14:37:42.616Z,95800.00
2019-05-09T14:40:13.985Z,95801.00
2019-05-09T14:42:45.233Z,95804.00
2019-05-09T14:45:18.081Z,95811.00
2019-05-09T14:47:49.811Z,95800.00
2019-05-09T14:50:21.123Z,95809.00
2019-05-09T14:52:52.430Z,95809.00
2019-05-09T14:55:23.693Z,95809.00
2019-05-09T14:57:57.687Z,95809.00
2019-05-09T15:00:28.723Z,95822.00
2019-05-09T15:03:00.382Z,95811.00
2019-05-09T15:05:31.926Z,95804.00
2019-05-09T15:08:03.150Z,95798.00
2019-05-09T15:10:35.080Z,95800.00
2019-05-09T15:13:07.831Z,95807.00
2019-05-09T15:15:40.642Z,95794.00
2019-05-09T15:18:12.328Z,95809.00
2019-05-09T15:20:43.707Z,95805.00
2019-05-09T15:23:15.382Z,95773.00
2019-05-09T15:25:48.079Z,95801.00
2019-05-09T15:28:19.684Z,95802.00
2019-05-09T15:30:50.959Z,95804.00
2019-05-09T15:33:22.635Z,95817.00
2019-05-09T15:35:54.294Z,95803.00
2019-05-09T15:39:38.045Z,95800.00
2019-05-09T15:42:08.486Z,95803.00
2019-05-09T15:44:40.057Z,95802.00
2019-05-09T15:47:18.337Z,95801.00
2019-05-09T15:49:49.697Z,95801.00
2019-05-09T15:52:22.278Z,95802.00
2019-05-09T15:54:53.384Z,95802.00
2019-05-09T15:57:27.398Z,95800.00
2019-05-09T15:59:58.951Z,95800.00
2019-05-09T16:02:33.856Z,95806.00
2019-05-09T16:05:04.482Z,95803.00
2019-05-09T16:07:37.465Z,95801.00
2019-05-09T16:10:09.106Z,95806.00
2019-05-09T16:12:40.742Z,95809.00
2019-05-09T16:15:12.930Z,95810.00
2019-05-09T16:17:44.214Z,95808.00
2019-05-09T16:20:22.950Z,95812.00
2019-05-09T16:22:48.993Z,95808.00
2019-05-09T16:25:20.177Z,95800.00
2019-05-09T16:27:51.688Z,95802.00
2019-05-09T16:30:23.046Z,95811.00
2019-05-09T16:32:54.297Z,95816.00
2019-05-09T16:35:25.841Z,95807.00
2019-05-09T16:38:06.103Z,95816.00
2019-05-09T16:40:30.485Z,95804.00
2019-05-09T16:43:02.046Z,95808.00
2019-05-09T16:45:33.610Z,95814.00
2019-05-09T16:48:04.951Z,95806.00
2019-05-09T16:50:41.897Z,95822.00
2019-05-09T16:53:09.844Z,95813.00
2019-05-09T16:55:41.306Z,95825.00
2019-05-09T16:58:12.860Z,95821.00
2019-05-09T17:00:49.736Z,95818.00
2019-05-09T17:03:21.019Z,95702.00
2019-05-09T17:05:52.769Z,95840.00
2019-05-09T17:08:24.431Z,95846.00
2019-05-09T17:10:55.720Z,95844.00
2019-05-09T17:13:28.944Z,95862.00
2019-05-09T17:15:59.938Z,95856.00
2019-05-09T17:18:31.449Z,95855.00
2019-05-09T17:21:24.196Z,95853.00
2019-05-09T17:23:54.546Z,95859.00
2019-05-09T17:26:28.241Z,95866.00
2019-05-09T17:28:59.055Z,95873.00
2019-05-09T17:31:30.411Z,95866.00
2019-05-09T17:34:02.071Z,95872.00
2019-05-09T17:36:33.393Z,95866.00
2019-05-09T17:39:07.919Z,95870.00
2019-05-09T17:41:40.066Z,95869.00
2019-05-09T17:44:11.390Z,95871.00
2019-05-09T17:46:42.762Z,95866.00
2019-05-09T17:49:17.341Z,95857.00
2019-05-09T17:51:48.388Z,95869.00
2019-05-09T17:54:19.834Z,95870.00
2019-05-09T17:56:51.237Z,95872.00
2019-05-09T17:59:22.449Z,95873.00
2019-05-09T18:01:54.172Z,95874.00
2019-05-09T18:04:25.819Z,95872.00
2019-05-09T18:06:58.410Z,95861.00
2019-05-09T18:09:30.932Z,95883.00
2019-05-09T18:12:02.228Z,95871.00
2019-05-09T18:14:33.802Z,95876.00
2019-05-09T18:17:05.068Z,95880.00
2019-05-09T18:19:38.081Z,95876.00
2019-05-09T18:22:09.468Z,95881.00
2019-05-09T18:24:40.682Z,95876.00
2019-05-09T18:27:12.349Z,95878.00
2019-05-09T18:29:44.024Z,95870.00
2019-05-09T18:32:32.909Z,95870.00
2019-05-09T18:35:12.409Z,95874.00
2019-05-09T18:37:43.890Z,95869.00
2019-05-09T18:40:17.993Z,95872.00
2019-05-09T18:42:49.988Z,95875.00
2019-05-09T18:45:23.777Z,95876.00
2019-05-09T18:47:57.793Z,95874.00
2019-05-09T18:50:28.377Z,95888.00
2019-05-09T18:52:59.570Z,95877.00
2019-05-09T18:55:30.720Z,95875.00
2019-05-09T18:58:01.996Z,95868.00
2019-05-09T19:00:33.345Z,95872.00
2019-05-09T19:03:04.640Z,95873.00
2019-05-09T19:05:36.148Z,95871.00
2019-05-09T19:08:07.501Z,95875.00
2019-05-09T19:10:39.121Z,95880.00
2019-05-09T19:13:11.404Z,95889.00
2019-05-09T19:16:04.998Z,95885.00
2019-05-09T19:18:55.003Z,95889.00
2019-05-09T19:21:39.800Z,95890.00
2019-05-09T19:24:11.400Z,95887.00
2019-05-09T19:26:42.622Z,95893.00
2019-05-09T19:29:13.890Z,95891.00
2019-05-09T19:31:45.178Z,95891.00
2019-05-09T19:34:16.444Z,95890.00
2019-05-09T19:36:48.158Z,95893.00
2019-05-09T19:39:19.376Z,95890.00
2019-05-09T19:41:50.645Z,95898.00
2019-05-09T19:44:21.840Z,95893.00
2019-05-09T19:46:53.137Z,95897.00
2019-05-09T19:49:24.664Z,95895.00
2019-05-09T19:51:55.893Z,95901.00
2019-05-09T19:54:27.211Z,95895.00
2019-05-09T19:56:58.441Z,95895.00
2019-05-09T19:59:29.642Z,95898.00
2019-05-09T20:02:01.048Z,95899.00
2019-05-09T20:04:32.299Z,95900.00
2019-05-09T20:07:05.025Z,95910.00
2019-05-09T20:09:47.873Z,95908.00
2019-05-09T20:12:29.324Z,95899.00
2019-05-09T20:15:00.641Z,95905.00
2019-05-09T20:17:32.216Z,95904.00
2019-05-09T20:20:04.740Z,95895.00
2019-05-09T20:22:35.926Z,95895.00
2019-05-09T20:25:07.792Z,95904.00
2019-05-09T20:27:38.983Z,95778.00
2019-05-09T20:30:10.814Z,95896.00
2019-05-09T20:32:42.085Z,95905.00
2019-05-09T20:35:14.935Z,95908.00
2019-05-09T20:37:47.438Z,95915.00
2019-05-09T20:40:19.169Z,95911.00
2019-05-09T20:42:50.830Z,95907.00
2019-05-09T20:45:22.136Z,95899.00
2019-05-09T20:47:53.821Z,95904.00
2019-05-09T20:50:25.196Z,95908.00
2019-05-09T20:53:09.216Z,95914.00
2019-05-09T20:55:29.754Z,95913.00
2019-05-09T20:58:01.239Z,95912.00
2019-05-09T21:00:32.986Z,95910.00
2019-05-09T21:03:08.072Z,95918.00
2019-05-09T21:05:38.305Z,95920.00
2019-05-09T21:08:09.783Z,95916.00
2019-05-09T21:10:41.381Z,95918.00
2019-05-09T21:13:12.790Z,95923.00
2019-05-09T21:15:44.236Z,95933.00
2019-05-09T21:18:15.663Z,95932.00
2019-05-09T21:20:47.111Z,95938.00
2019-05-09T21:23:24.617Z,95940.00
2019-05-09T21:25:51.734Z,95936.00
2019-05-09T21:28:23.245Z,95932.00
2019-05-09T21:30:54.721Z,95938.00
2019-05-09T21:33:26.124Z,95942.00
2019-05-09T21:35:58.038Z,95944.00
2019-05-09T21:38:29.563Z,95946.00
2019-05-09T21:41:00.850Z,95947.00
2019-05-09T21:43:32.151Z,95963.00
2019-05-09T21:46:03.423Z,95953.00
2019-05-09T21:48:38.438Z,95959.00
2019-05-09T21:51:09.242Z,95962.00
2019-05-09T21:53:41.454Z,95976.00
2019-05-09T21:56:12.920Z,95979.00
2019-05-09T21:58:44.121Z,95975.00
2019-05-09T22:01:20.571Z,95988.00
2019-05-09T22:03:52.268Z,95986.00
2019-05-09T22:06:23.831Z,95990.00
2019-05-09T22:08:55.585Z,95987.00
2019-05-09T22:11:27.552Z,95995.00
2019-05-09T22:13:59.090Z,96006.00
2019-05-09T22:16:30.754Z,96019.00
2019-05-09T22:19:02.615Z,96019.00
2019-05-09T22:21:34.246Z,96028.00
2019-05-09T22:24:05.922Z,96033.00
2019-05-09T22:26:37.516Z,96050.00
2019-05-09T22:29:09.207Z,96049.00
2019-05-09T22:31:40.467Z,96041.00
2019-05-09T22:34:11.653Z,96050.00
2019-05-09T22:36:43.511Z,96049.00
2019-05-09T22:39:14.667Z,96052.00
2019-05-09T22:41:45.973Z,96056.00
2019-05-09T22:44:17.347Z,96054.00
2019-05-09T22:46:48.610Z,96066.00
2019-05-09T22:49:20.098Z,96066.00
2019-05-09T22:51:51.353Z,96080.00
2019-05-09T22:54:22.622Z,96083.00
2019-05-09T22:56:53.878Z,96079.00
2019-05-09T22:59:25.183Z,96071.00
2019-05-09T23:01:56.343Z,96089.00
2019-05-09T23:04:27.809Z,96091.00
2019-05-09T23:06:59.293Z,96092.00
2019-05-09T23:09:30.536Z,96092.00
2019-05-09T23:12:02.146Z,96099.00
2019-05-09T23:14:33.297Z,96102.00
2019-05-09T23:17:04.587Z,96096.00
2019-05-09T23:19:36.163Z,96095.00
2019-05-09T23:22:08.757Z,96095.00
2019-05-09T23:24:44.400Z,96098.00
2019-05-09T23:27:16.443Z,96104.00
2019-05-09T23:29:47.770Z,96101.00
2019-05-09T23:32:31.352Z,96094.00
2019-05-09T23:35:02.758Z,96101.00
2019-05-09T23:37:34.024Z,96114.00
2019-05-09T23:40:06.219Z,96120.00
2019-05-09T23:42:37.623Z,96118.00
2019-05-09T23:45:09.093Z,96112.00
2019-05-09T23:47:40.381Z,96114.00
2019-05-09T23:50:11.674Z,96117.00
2019-05-09T23:52:42.935Z,96120.00
2019-05-09T23:55:31.988Z,96117.00
2019-05-09T23:58:21.572Z,96120.00
